Time;durP1;ratioP1;P1;durP2;ratioP2;P2;SDS_P1;SDS_P2;PMS_P1;PMS_P2;Temp;Humidity;BMP_temperature;BMP_pressure;BME280_temperature;BME280_humidity;BME280_pressure;Samples;Min_cycle;Max_cycle;Signal;HPM_P1;HPM_P2
2023/10/10 00:01:19;;;;;;;48.75;28.08;;;;;;;-144.05;88.66;56997.50;5093994;28;20107;-86
2023/10/10 00:03:49;;;;;;;53.42;27.50;;;;;;;-144.05;88.91;56961.41;5085293;28;20028;-85
2023/10/10 00:06:16;;;;;;;34.75;21.40;;;;;;;-144.05;88.83;56980.53;5096994;28;20039;-86
2023/10/10 00:08:44;;;;;;;41.22;22.65;;;;;;;-144.05;88.71;56972.03;5096927;28;20028;-87
2023/10/10 00:11:18;;;;;;;45.42;24.08;;;16.70;99.90;;;-144.05;88.77;56942.28;5096499;28;20028;-87
2023/10/10 00:13:58;;;;;;;39.20;22.73;;;16.20;99.90;;;-144.05;89.01;56976.28;5096647;28;20031;-85
2023/10/10 00:16:26;;;;;;;35.35;21.17;;;;;;;-144.05;89.14;56991.13;5088347;28;20032;-83
2023/10/10 00:18:58;;;;;;;40.03;21.90;;;;;;;-144.05;89.29;56965.66;5086102;28;20367;-83
2023/10/10 00:21:28;;;;;;;47.63;26.52;;;;;;;-144.05;89.48;56952.91;5095824;28;20028;-82
2023/10/10 00:23:55;;;;;;;44.78;26.02;;;;;;;-144.05;89.63;57001.75;5086274;28;20051;-84
2023/10/10 00:26:22;;;;;;;53.60;28.60;;;;;;;-144.05;89.79;56991.13;5075725;28;20032;-86
2023/10/10 00:28:55;;;;;;;49.85;27.65;;;;;;;-144.05;89.80;56963.53;5078751;28;20024;-85
2023/10/10 00:31:23;;;;;;;42.13;22.70;;;;;;;-144.05;89.53;56982.66;5097474;28;20028;-83
2023/10/10 00:33:51;;;;;;;50.97;29.27;;;;;;;-144.05;90.19;56974.16;5078799;28;20047;-85
2023/10/10 00:36:22;;;;;;;58.92;32.90;;;;;;;-144.05;90.57;56976.28;5078402;28;20119;-84
2023/10/10 00:44:18;;;;;;;66.72;35.97;;;;;;;-144.05;91.51;56974.16;5090098;28;20032;-83
2023/10/10 00:46:54;;;;;;;60.80;36.03;;;14.10;99.90;;;-144.05;91.32;56959.28;5095457;28;20058;-86
2023/10/10 00:49:24;;;;;;;65.47;33.47;;;;;;;-144.05;91.40;56933.78;5077380;28;20096;-84
2023/10/10 00:52:02;;;;;;;60.65;33.22;;;15.50;99.90;;;-144.05;91.12;56967.78;5094277;28;20536;-83
2023/10/10 00:54:32;;;;;;;59.90;31.85;;;;;;;-144.05;90.82;56948.66;5100520;28;20035;-86
2023/10/10 00:57:03;;;;;;;54.92;29.40;;;15.90;99.90;;;-144.05;90.92;56967.78;5083325;28;20328;-85
2023/10/10 00:59:34;;;;;;;61.47;33.15;;;17.10;99.90;;;-144.05;90.98;56961.41;5096093;28;20020;-82
2023/10/10 01:02:07;;;;;;;53.40;30.98;;;;;;;-144.05;90.94;56969.91;5094614;28;20112;-85
2023/10/10 01:04:48;;;;;;;57.88;31.30;;;;;;;-144.05;91.25;56957.16;5094030;28;20027;-81
2023/10/10 01:07:20;;;;;;;54.22;28.83;;;17.00;99.90;;;-144.05;91.08;56980.53;5071808;28;20039;-83
2023/10/10 01:10:11;;;;;;;59.92;33.65;;;15.90;99.90;;;-144.05;91.42;56972.03;5097003;28;20069;-83
2023/10/10 01:12:42;;;;;;;62.60;34.17;;;;;;;-144.05;91.68;56969.91;5078523;28;20020;-83
2023/10/10 01:15:34;;;;;;;70.05;36.05;;;15.60;99.90;;;-144.05;92.16;56980.53;5094658;28;20056;-85
2023/10/10 01:18:00;;;;;;;69.43;36.00;;;;;;;-144.05;92.24;56976.28;5086867;28;20051;-86
2023/10/10 01:20:45;;;;;;;71.45;37.33;;;;;;;-144.05;92.63;56997.50;5095117;28;20365;-84
2023/10/10 01:23:15;;;;;;;71.88;36.88;;;;;;;-144.05;92.93;56980.53;5094470;28;20085;-86
2023/10/10 01:25:46;;;;;;;66.50;36.13;;;;;;;-144.05;92.71;56972.03;5092258;28;20028;-85
2023/10/10 01:33:22;;;;;;;58.53;34.25;;;;;;;-144.05;92.69;56961.41;5093963;28;20482;-83
2023/10/10 01:35:52;;;;;;;63.00;33.85;;;15.90;99.90;;;-144.05;92.38;56961.41;5093877;28;20069;-83
2023/10/10 01:38:47;;;;;;;64.88;33.97;;;;;;;-144.05;92.33;56974.16;5094234;28;20031;-82
2023/10/10 01:41:22;;;;;;;56.65;30.15;;;;;;;-144.05;91.98;56969.91;5088015;28;20107;-84
2023/10/10 01:43:53;;;;;;;65.43;32.83;;;;;;;-144.05;92.35;56969.91;5092521;28;20024;-80
2023/10/10 01:46:29;;;;;;;58.60;30.02;;;;;;;-144.05;92.26;56974.16;5091205;28;20385;-86
2023/10/10 01:48:57;;;;;;;65.25;33.40;;;;;;;-144.05;92.84;56972.03;5094551;28;20024;-83
2023/10/10 01:51:29;;;;;;;65.15;33.00;;;;;;;-144.05;93.09;56969.91;5092846;28;20028;-82
2023/10/10 01:53:55;;;;;;;60.83;32.55;;;;;;;-144.05;92.92;56967.78;5061309;28;20497;-87
2023/10/10 01:56:22;;;;;;;61.88;33.17;;;;;;;-144.05;92.74;56982.66;5087785;28;20501;-85
2023/10/10 01:58:54;;;;;;;67.10;33.13;;;;;;;-144.05;92.72;56976.28;5074378;28;20044;-83
2023/10/10 02:01:23;;;;;;;59.88;32.35;;;15.90;99.90;;;-144.05;92.94;56955.03;5084603;28;20073;-86
2023/10/10 02:03:51;;;;;;;63.72;31.20;;;;;;;-144.05;92.40;56957.16;5086188;28;20058;-85
2023/10/10 02:06:24;;;;;;;59.75;32.95;;;;;;;-144.05;92.33;56986.91;5076034;28;20020;-85
2023/10/10 02:09:10;;;;;;;66.95;32.83;;;16.20;99.90;;;-144.05;92.26;56967.78;5096515;28;20051;-83
2023/10/10 02:11:49;;;;;;;62.25;32.92;;;;;;;-144.05;91.98;56972.03;5094482;28;20028;-86
2023/10/10 02:14:18;;;;;;;59.83;32.08;;;;;;;-144.05;91.91;56972.03;5088605;28;20489;-86
2023/10/10 02:16:48;;;;;;;62.63;31.40;;;16.00;99.90;;;-144.05;91.91;56935.91;5076314;28;20028;-84
2023/10/10 02:19:25;;;;;;;59.38;30.23;;;;;;;-144.05;92.14;56965.66;5076644;28;20024;-87
2023/10/10 02:22:03;;;;;;;58.10;30.35;;;;;;;-144.05;92.39;56989.00;5078511;28;20032;-84
2023/10/10 02:26:56;;;;;;;63.58;33.63;;;;;;;-144.05;92.93;56965.66;5094697;28;20028;-86
2023/10/10 02:32:09;;;;;;;63.72;33.10;;;;;;;-144.05;92.69;56965.66;5091775;28;20059;-84
2023/10/10 02:34:36;;;;;;;64.57;32.70;;;;;;;-144.05;92.56;56957.16;5094005;28;20024;-85
2023/10/10 02:37:54;;;;;;;68.30;33.03;;;15.70;99.90;;;-144.05;92.75;56950.78;5070796;28;20078;-83
2023/10/10 02:40:05;;;;;;;56.22;30.77;;;;;;;-144.05;92.67;56980.53;5075877;28;20504;-83
2023/10/10 02:42:33;;;;;;;58.35;33.88;;;;;;;-144.05;93.15;56976.28;5093354;28;20516;-81
2023/10/10 02:45:00;;;;;;;71.82;33.85;;;;;;;-144.05;93.38;56984.78;5073234;28;20024;-85
2023/10/10 02:47:32;;;;;;;64.40;33.35;;;;;;;-144.05;93.17;56978.41;5093869;28;20016;-83
2023/10/10 02:50:39;;;;;;;66.25;34.30;;;15.80;99.90;;;-144.05;93.22;56972.03;5070709;28;20048;-83
2023/10/10 02:53:07;;;;;;;63.97;33.10;;;;;;;-144.05;93.60;56969.91;5091169;28;20032;-83
2023/10/10 02:55:41;;;;;;;59.75;32.17;;;;;;;-144.05;93.22;56986.91;5091026;28;20080;-85
2023/10/10 02:58:43;;;;;;;66.15;32.03;;;;;;;-144.05;93.18;56959.28;5092424;28;20028;-85
2023/10/10 03:01:03;;;;;;;72.55;33.35;;;;;;;-144.05;93.10;56993.25;5088952;28;20032;-85
2023/10/10 03:03:30;;;;;;;63.83;32.95;;;;;;;-144.05;93.20;56961.41;5082925;28;20039;-82
2023/10/10 03:06:06;;;;;;;63.70;31.98;;;;;;;-144.05;93.47;56961.41;5113860;28;20039;-82
2023/10/10 03:11:01;;;;;;;61.88;31.75;;;;;;;-144.05;93.42;56974.16;5095956;28;20569;-83
2023/10/10 03:13:47;;;;;;;69.35;32.72;;;15.90;99.90;;;-144.05;93.30;56929.53;5075032;28;20029;-83
2023/10/10 03:19:13;;;;;;;58.67;31.70;;;;;;;-144.05;93.05;56980.53;5094106;28;20036;-84
2023/10/10 03:24:30;;;;;;;60.45;31.52;;;;;;;-144.05;92.63;56969.91;5089221;28;20028;-84
2023/10/10 03:29:47;;;;;;;70.75;30.70;;;;;;;-144.05;92.91;56940.16;5090167;28;20073;-85
2023/10/10 03:32:33;;;;;;;68.45;31.83;;;;;;;-144.05;93.00;56986.91;5070137;28;20031;-84
2023/10/10 03:35:20;;;;;;;66.20;31.33;;;;;;;-144.05;92.76;56965.66;5091077;28;20098;-83
2023/10/10 03:38:04;;;;;;;66.05;28.98;;;;;;;-144.05;92.46;56989.00;5093594;28;20032;-82
2023/10/10 05:25:25;;;;;;;102.68;37.20;;;;;;;-144.05;92.06;56976.28;5092341;28;20039;-86
2023/10/10 05:27:52;;;;;;;102.30;38.78;;;16.10;99.90;;;-144.05;92.46;56969.91;5082023;28;20455;-82
2023/10/10 05:30:24;;;;;;;91.50;35.47;;;15.80;99.90;;;-144.05;92.24;56965.66;5095697;28;20032;-87
2023/10/10 05:33:02;;;;;;;102.30;38.55;;;;;;;-144.05;92.34;56982.66;5095685;28;20051;-86
2023/10/10 05:35:47;;;;;;;101.65;38.78;;;15.90;99.90;;;-144.05;92.47;56961.41;5091346;28;20028;-86
2023/10/10 05:38:15;;;;;;;104.40;38.95;;;;;;;-144.05;92.73;56976.28;5093518;28;20028;-86
2023/10/10 05:40:47;;;;;;;112.78;39.45;;;;;;;-144.05;92.78;56993.25;5093023;28;20039;-83
2023/10/10 05:43:16;;;;;;;108.82;40.25;;;;;;;-144.05;92.71;56965.66;5095692;28;20028;-85
2023/10/10 05:45:45;;;;;;;110.20;42.03;;;;;;;-144.05;92.91;56976.28;5078224;28;20024;-86
2023/10/10 05:48:12;;;;;;;105.53;39.05;;;;;;;-144.05;92.84;56961.41;5096456;28;20028;-86
2023/10/10 05:50:42;;;;;;;105.65;39.53;;;;;;;-144.05;92.78;56989.00;5094478;28;20020;-83
2023/10/10 05:53:09;;;;;;;91.90;34.45;;;;;;;-144.05;92.49;56982.66;5094469;28;20600;-83
2023/10/10 05:55:38;;;;;;;100.10;36.28;;;;;;;-144.05;92.54;56944.41;5094552;28;20055;-81
2023/10/10 05:58:05;;;;;;;101.22;37.08;;;;;;;-144.05;92.33;56980.53;5070639;28;20039;-84
2023/10/10 06:00:41;;;;;;;89.25;35.08;;;16.00;99.90;;;-144.05;92.44;56982.66;5093703;28;20538;-81
2023/10/10 06:03:08;;;;;;;93.90;33.25;;;;;;;-144.05;92.51;56986.91;5087438;28;20021;-85
2023/10/10 06:05:35;;;;;;;90.03;33.50;;;;;;;-144.05;92.37;56978.41;5065355;28;20024;-81
2023/10/10 06:08:02;;;;;;;103.28;39.40;;;;;;;-144.05;92.65;56989.00;5072678;28;20478;-85
2023/10/10 06:10:31;;;;;;;108.80;39.42;;;16.60;99.90;;;-144.05;92.64;56955.03;5081873;28;20060;-83
2023/10/10 06:13:03;;;;;;;103.25;37.80;;;15.10;99.90;;;-144.05;92.71;56974.16;5093389;28;20024;-82
2023/10/10 06:15:33;;;;;;;103.78;38.30;;;;;;;-144.05;92.75;56965.66;5075393;28;20118;-87
2023/10/10 06:18:18;;;;;;;111.95;40.92;;;;;;;-144.05;92.73;56976.28;5075296;28;20043;-84
2023/10/10 06:20:47;;;;;;;91.18;34.92;;;14.90;99.90;;;-144.05;92.65;56927.41;5093747;28;20438;-80
2023/10/10 06:23:14;;;;;;;100.28;38.20;;;15.00;99.90;;;-144.05;92.51;56993.25;5071907;28;20032;-83
2023/10/10 06:25:42;;;;;;;81.20;32.75;;;;;;;-144.05;92.39;56963.53;5075707;28;20032;-83
2023/10/10 06:28:26;;;;;;;97.45;40.58;;;;;;;-144.05;92.48;56976.28;5093699;28;20065;-83
2023/10/10 06:30:53;;;;;;;110.68;40.85;;;;;;;-144.05;92.34;56959.28;5072342;28;20039;-84
2023/10/10 06:33:27;;;;;;;82.38;32.88;;;;;;;-144.05;92.36;56986.91;5093691;28;20027;-85
2023/10/10 06:39:17;;;;;;;102.20;41.05;;;14.90;99.90;;;-144.05;92.27;56986.91;5089354;28;20118;-82
2023/10/10 06:41:51;;;;;;;99.30;39.33;;;;;;;-144.05;92.13;56969.91;5073125;28;20023;-86
2023/10/10 06:44:31;;;;;;;99.97;41.92;;;;;;;-144.05;91.84;56991.13;5075073;28;20397;-83
2023/10/10 06:47:00;;;;;;;93.82;41.17;;;;;;;-144.05;91.83;56961.41;5093187;28;20027;-83
2023/10/10 06:49:43;;;;;;;97.70;43.60;;;;;;;-144.05;91.66;56984.78;5087557;28;20031;-81
2023/10/10 06:52:18;;;;;;;94.70;41.75;;;;;;;-144.05;91.81;56980.53;5090589;28;20165;-82
2023/10/10 06:54:45;;;;;;;88.18;41.88;;;;;;;-144.05;91.01;56982.66;5066144;28;20444;-83
2023/10/10 06:57:17;;;;;;;91.15;43.42;;;15.30;99.90;;;-144.05;90.60;56967.78;5069941;28;20056;-83
2023/10/10 06:59:44;;;;;;;93.15;43.70;;;;;;;-144.05;90.39;56957.16;5093654;28;20030;-86
2023/10/10 07:02:19;;;;;;;93.40;43.45;;;;;;;-144.05;90.46;56969.91;5094633;28;20082;-85
2023/10/10 07:04:52;;;;;;;92.50;42.20;;;;;;;-144.05;89.53;56980.53;5095032;28;20084;-80
2023/10/10 07:07:26;;;;;;;102.22;43.22;;;15.70;99.90;;;-144.05;89.94;56935.91;5097016;28;20035;-86
2023/10/10 07:09:57;;;;;;;94.68;44.20;;;;;;;-144.05;89.36;56976.28;5088750;28;20098;-85
2023/10/10 07:12:28;;;;;;;85.63;41.00;;;;;;;-144.05;88.57;56978.41;5068243;28;20070;-84
2023/10/10 07:14:55;;;;;;;85.40;41.50;;;;;;;-144.05;88.02;56997.50;5077270;28;20028;-87
2023/10/10 07:17:26;;;;;;;78.53;38.97;;;;;;;-144.05;87.61;56978.41;5094618;28;20028;-87
2023/10/10 07:22:33;;;;;;;;;;;17.20;99.90;;;-144.05;85.99;56974.16;5091767;28;20071;-84
2023/10/10 07:25:09;;;;;;;77.40;39.95;;;;;;;-144.05;84.91;56991.13;5085504;28;19906;-81
2023/10/10 07:27:39;;;;;;;81.60;39.65;;;;;;;-144.05;83.74;56982.66;5103587;28;20020;-82
2023/10/10 07:30:17;;;;;;;75.45;38.30;;;17.30;99.90;;;-144.05;83.18;56959.28;5074083;28;20024;-80
2023/10/10 07:32:51;;;;;;;68.00;36.85;;;18.00;99.90;;;-144.05;82.94;56969.91;5088512;28;20028;-83
2023/10/10 07:35:25;;;;;;;65.78;36.00;;;18.70;99.90;;;-144.05;82.61;56989.00;5092364;28;20052;-83
2023/10/10 07:37:52;;;;;;;69.20;35.38;;;;;;;-144.05;80.60;56978.41;5092520;28;20028;-85
2023/10/10 07:40:23;;;;;;;64.43;32.20;;;;;;;-144.05;78.87;57001.75;5092497;28;20035;-84
2023/10/10 07:42:50;;;;;;;61.00;32.38;;;;;;;-144.05;78.42;56976.28;5093195;28;20389;-82
2023/10/10 07:45:26;;;;;;;56.30;30.10;;;;;;;-144.05;76.88;56972.03;5070391;28;20038;-84
2023/10/10 07:50:35;;;;;;;54.28;28.88;;;17.80;99.90;;;-144.05;76.71;56940.16;5093667;28;20308;-83
2023/10/10 07:53:12;;;;;;;50.78;28.17;;;;;;;-144.05;75.20;56997.50;5089394;28;20078;-83
2023/10/10 07:55:53;;;;;;;52.80;28.92;;;;;;;-144.05;73.89;56993.25;5072010;28;20020;-82
2023/10/10 07:58:29;;;;;;;47.17;26.00;;;;;;;-144.05;73.49;57001.75;5091826;28;20031;-84
2023/10/10 08:01:10;;;;;;;51.47;27.70;;;;;;;-144.05;71.75;56967.78;5089087;28;20025;-83
2023/10/10 08:03:44;;;;;;;49.72;25.63;;;17.80;99.90;;;-144.05;71.33;56972.03;5072806;28;20047;-82
2023/10/10 08:06:16;;;;;;;45.65;25.05;;;;;;;-144.05;69.72;56969.91;5093158;28;20454;-83
2023/10/10 08:08:44;;;;;;;41.25;22.73;;;;;;;-144.05;69.48;56989.00;5090084;28;20130;-83
2023/10/10 08:11:13;;;;;;;41.55;21.95;;;;;;;-144.05;69.36;56982.66;5082832;28;20032;-80
2023/10/10 08:13:42;;;;;;;43.45;23.02;;;;;;;-144.05;68.95;56989.00;5090270;28;20099;-81
2023/10/10 08:16:09;;;;;;;34.28;19.15;;;;;;;-144.05;66.45;57029.38;5094085;28;20780;-84
2023/10/10 08:18:52;;;;;;;40.42;20.88;;;;;;;-144.05;65.84;56982.66;5076848;28;20085;-82
2023/10/10 08:21:22;;;;;;;37.60;19.20;;;;;;;-144.05;65.02;57003.88;5097952;28;20032;-80
2023/10/10 08:23:56;;;;;;;33.63;17.00;;;;;;;-144.05;64.68;56976.28;5114225;28;20020;-79
2023/10/10 08:26:27;;;;;;;32.88;18.27;;;;;;;-144.05;65.33;56986.91;5118868;28;20438;-80
2023/10/10 08:28:53;;;;;;;29.42;16.52;;;;;;;-144.05;65.28;56991.13;5118033;28;20116;-78
2023/10/10 08:31:22;;;;;;;26.35;16.70;;;19.20;99.90;;;-144.05;64.41;56984.78;5100640;28;20025;-81
2023/10/10 08:33:49;;;;;;;27.98;16.88;;;;;;;-144.05;63.97;57008.13;5117816;28;20004;-81
2023/10/10 08:36:26;;;;;;;27.55;14.95;;;20.40;99.90;;;-144.05;62.24;57006.00;5110032;28;20108;-80
2023/10/10 08:39:17;;;;;;;24.67;15.35;;;21.60;99.90;;;-144.05;60.44;57042.13;5112330;28;20016;-83
2023/10/10 08:41:45;;;;;;;26.88;15.18;;;20.70;99.90;;;-144.05;59.62;57006.00;5114550;28;20016;-79
2023/10/10 08:44:17;;;;;;;25.55;14.40;;;;;;;-144.05;59.92;57018.75;5116468;28;20024;-77
2023/10/10 08:46:46;;;;;;;29.52;13.18;;;;;;;-144.05;60.04;57048.50;5116141;28;20016;-82
2023/10/10 08:49:15;;;;;;;29.05;14.10;;;20.50;99.90;;;-144.05;60.72;57018.75;5101434;28;20032;-84
2023/10/10 08:51:45;;;;;;;26.25;13.77;;;;;;;-144.05;61.64;56993.25;5108659;28;20024;-84
2023/10/10 08:54:15;;;;;;;24.83;12.45;;;;;;;-144.05;62.20;56986.91;5089663;28;20391;-81
2023/10/10 08:56:42;;;;;;;32.08;14.90;;;;;;;-144.05;62.60;57003.88;5084583;28;20032;-82
2023/10/10 08:59:12;;;;;;;23.75;13.55;;;19.70;99.90;;;-144.05;62.55;57018.75;5098122;28;20035;-84
2023/10/10 09:01:38;;;;;;;25.30;13.23;;;;;;;-144.05;62.16;57006.00;5098658;28;20028;-81
2023/10/10 09:04:05;;;;;;;24.88;13.48;;;20.80;99.90;;;-144.05;61.72;57018.75;5080387;28;20081;-82
2023/10/10 09:06:44;;;;;;;25.80;12.95;;;21.70;99.90;;;-144.05;59.72;57027.25;5094240;28;20496;-84
2023/10/10 09:11:57;;;;;;;24.65;11.98;;;;;;;-144.05;60.40;56989.00;5093999;28;20066;-86
2023/10/10 09:14:39;;;;;;;27.08;11.77;;;;;;;-144.05;58.49;56995.38;5089473;28;20020;-82
2023/10/10 09:17:10;;;;;;;20.58;10.85;;;;;;;-144.05;58.12;57035.75;5094323;28;20439;-83
2023/10/10 09:19:46;;;;;;;19.83;9.70;;;21.40;99.90;;;-144.05;57.44;57042.13;5098138;28;20026;-80
2023/10/10 09:22:29;;;;;;;22.45;10.68;;;;;;;-144.05;56.97;57018.75;5075995;28;20038;-82
2023/10/10 09:24:55;;;;;;;19.75;10.30;;;;;;;-144.05;56.91;57042.13;5080329;28;20027;-82
2023/10/10 09:27:27;;;;;;;19.38;9.40;;;;;;;-144.05;56.81;57014.50;5079686;28;20032;-83
2023/10/10 09:29:56;;;;;;;17.98;9.27;;;23.40;99.90;;;-144.05;55.77;57035.75;5092678;28;20020;-84
2023/10/10 09:32:36;;;;;;;16.63;9.18;;;20.40;99.90;;;-144.05;56.61;57023.00;5089283;28;20070;-84
2023/10/10 09:35:06;;;;;;;17.08;7.90;;;;;;;-144.05;56.13;57014.50;5093415;28;20059;-82
2023/10/10 09:37:38;;;;;;;13.68;6.70;;;20.80;99.90;;;-144.05;54.37;57067.59;5070936;28;20211;-85
2023/10/10 09:40:15;;;;;;;28.20;8.68;;;;;;;-144.05;52.24;57052.75;5075761;28;20029;-80
2023/10/10 09:43:25;;;;;;;18.55;8.52;;;;;;;-144.05;51.76;57044.25;5095035;28;20115;-81
2023/10/10 09:45:56;;;;;;;15.10;8.05;;;24.20;99.90;;;-144.05;51.89;57035.75;5094281;28;20036;-81
2023/10/10 09:48:59;;;;;;;15.98;7.50;;;;;;;-144.05;52.48;57027.25;5088340;28;20037;-82
2023/10/10 09:54:25;;;;;;;;;;;20.60;99.90;;;-144.05;52.61;57059.09;5093300;28;20119;-83
2023/10/10 09:56:53;;;;;;;12.40;6.35;;;22.40;99.90;;;-144.05;53.42;57059.09;5093963;28;19965;-82
2023/10/10 09:59:20;;;;;;;11.38;6.15;;;;;;;-144.05;52.32;57020.88;5095925;28;20020;-83
2023/10/10 10:01:59;;;;;;;11.63;6.40;;;;;;;-144.05;52.36;57044.25;5078404;28;20024;-78
2023/10/10 10:04:36;;;;;;;11.93;5.70;;;23.40;99.90;;;-144.05;50.89;57050.63;5092627;28;20028;-83
2023/10/10 10:07:56;;;;;;;13.45;6.57;;;20.70;99.90;;;-144.05;49.35;57061.22;5086377;28;20326;-86
2023/10/10 10:11:09;;;;;;;10.23;4.50;;;23.40;99.90;;;-144.05;49.24;57069.72;5095996;28;20501;-82
2023/10/10 10:14:47;;;;;;;6.95;4.07;;;23.90;99.90;;;-144.05;48.27;57012.38;5070859;28;20080;-84
2023/10/10 10:18:18;;;;;;;13.05;4.75;;;23.60;99.90;;;-144.05;47.37;57061.22;5073777;28;20505;-82
2023/10/10 10:20:49;;;;;;;11.50;4.43;;;;;;;-144.05;47.82;57037.88;5092225;28;20551;-84
2023/10/10 10:23:38;;;;;;;7.45;3.78;;;;;;;-144.05;47.46;57020.88;5098772;28;20077;-84
2023/10/10 10:26:08;;;;;;;10.95;4.40;;;;;;;-144.05;47.58;57056.97;5096322;28;20562;-84
2023/10/10 10:28:36;;;;;;;8.73;4.45;;;;;;;-144.05;48.15;57040.00;5099058;28;20020;-84
2023/10/10 10:31:30;;;;;;;11.05;4.65;;;23.80;99.90;;;-144.05;48.65;57031.50;5100205;28;20409;-83
2023/10/10 10:34:23;;;;;;;9.55;4.53;;;;;;;-144.05;48.17;57018.75;5095309;28;20039;-82
2023/10/10 10:37:06;;;;;;;11.80;3.92;;;22.00;99.90;;;-144.05;48.56;57018.75;5080585;28;20024;-82
2023/10/10 10:39:35;;;;;;;8.57;4.20;;;22.60;99.90;;;-144.05;48.58;57046.38;5076740;28;20020;-81
2023/10/10 10:42:12;;;;;;;8.98;4.53;;;;;;;-144.05;48.82;57048.50;5096395;28;20474;-82
2023/10/10 10:44:58;;;;;;;7.95;4.25;;;;;;;-144.05;47.98;57054.88;5091271;28;20032;-80
2023/10/10 10:47:37;;;;;;;7.57;4.00;;;22.10;99.90;;;-144.05;48.52;57035.75;5095865;28;20099;-82
2023/10/10 10:50:05;;;;;;;8.05;3.95;;;;;;;-144.05;47.69;57056.97;5075187;28;20027;-81
2023/10/10 10:52:45;;;;;;;9.30;5.03;;;24.30;99.90;;;-144.05;46.53;57076.09;5095615;28;20035;-83
2023/10/10 10:55:20;;;;;;;8.43;3.83;;;;;;;-144.05;46.15;57073.97;5074514;28;20028;-83
2023/10/10 10:58:05;;;;;;;10.77;4.45;;;24.20;99.90;;;-144.05;46.51;57065.47;5095840;28;20032;-84
2023/10/10 11:01:00;;;;;;;10.23;4.13;;;23.70;99.90;;;-144.05;46.74;57059.09;5095773;28;20036;-81
2023/10/10 11:03:35;;;;;;;7.57;4.13;;;;;;;-144.05;46.23;57063.34;5075744;28;20512;-79
2023/10/10 11:06:07;;;;;;;8.05;4.28;;;21.70;99.90;;;-144.05;46.82;57031.50;5070515;28;20143;-83
2023/10/10 11:08:52;;;;;;;9.95;4.25;;;24.80;99.90;;;-144.05;46.71;57059.09;5097636;28;20024;-82
2023/10/10 11:14:00;;;;;;;10.15;4.30;;;24.50;99.90;;;-144.05;46.31;57046.38;5088189;28;20025;-82
2023/10/10 11:17:17;;;;;;;9.45;4.15;;;21.50;99.90;;;-144.05;45.30;57065.47;5095890;28;20040;-82
2023/10/10 11:22:01;;;;;;;9.70;4.80;;;24.80;99.90;;;-144.05;44.87;57067.59;5084320;28;20031;-81
2023/10/10 11:24:31;;;;;;;7.95;4.40;;;23.50;99.90;;;-144.05;45.69;57071.84;5079026;28;20037;-80
2023/10/10 11:29:50;;;;;;;9.45;3.95;;;23.40;99.90;;;-144.05;44.76;57067.59;5086117;28;20040;-84
2023/10/10 11:32:29;;;;;;;8.65;4.50;;;21.80;99.90;;;-144.05;44.34;57067.59;5096127;28;20031;-83
2023/10/10 11:37:48;;;;;;;8.60;4.47;;;;;;;-144.05;43.76;57073.97;5097148;28;20020;-83
2023/10/10 11:40:31;;;;;;;8.48;4.82;;;;;;;-144.05;43.99;57050.63;5094069;28;20032;-80
2023/10/10 11:43:17;;;;;;;8.82;4.32;;;25.00;99.90;;;-144.05;42.61;57105.84;5107915;28;20028;-82
2023/10/10 11:45:53;;;;;;;7.70;4.05;;;24.60;99.90;;;-144.05;41.65;57101.59;5096818;28;20556;-84
2023/10/10 11:48:19;;;;;;;8.32;3.90;;;;;;;-144.05;42.48;57073.97;5090467;28;20478;-80
2023/10/10 11:50:59;;;;;;;11.38;4.30;;;25.30;99.90;;;-144.05;41.71;57088.84;5072833;28;20040;-81
2023/10/10 11:53:29;;;;;;;11.07;4.30;;;;;;;-144.05;41.35;57069.72;5095026;28;20039;-80
2023/10/10 11:56:02;;;;;;;9.85;4.35;;;;;;;-144.05;40.19;57090.97;5095842;28;20051;-81
2023/10/10 11:58:37;;;;;;;7.93;4.03;;;;;;;-144.05;40.63;57065.47;5089142;28;20032;-85
2023/10/10 12:01:10;;;;;;;12.27;4.03;;;;;;;-144.05;39.58;57071.84;5085426;28;20374;-82
2023/10/10 12:06:19;;;;;;;7.95;4.13;;;26.00;99.90;;;-144.05;39.17;57105.84;5099131;28;20032;-83
2023/10/10 12:08:50;;;;;;;9.10;4.57;;;25.40;99.90;;;-144.05;39.67;57078.22;5099003;28;20100;-81
2023/10/10 12:11:21;;;;;;;9.27;4.00;;;;;;;-144.05;38.59;57088.84;5098542;28;20028;-83
2023/10/10 12:13:50;;;;;;;7.70;3.92;;;;;;;-144.05;38.41;57082.47;5097715;28;20088;-85
2023/10/10 12:16:17;;;;;;;7.57;3.45;;;;;;;-144.05;37.57;57146.19;5098520;28;20088;-81
2023/10/10 12:18:49;;;;;;;10.23;3.67;;;25.20;99.90;;;-144.05;36.06;57107.97;5098584;28;20073;-86
2023/10/10 12:21:22;;;;;;;6.07;3.60;;;;;;;-144.05;36.37;57116.47;5078433;28;20115;-85
2023/10/10 12:23:55;;;;;;;6.68;3.25;;;24.90;99.90;;;-144.05;36.85;57099.47;5081602;28;20028;-83
2023/10/10 12:26:22;;;;;;;6.53;3.50;;;;;;;-144.05;35.68;57124.97;5086900;28;20073;-87
2023/10/10 12:28:52;;;;;;;8.20;3.45;;;;;;;-144.05;35.22;57082.47;5079331;28;20032;-85
2023/10/10 12:31:21;;;;;;;8.85;4.13;;;;;;;-144.05;36.06;57095.22;5086584;28;20035;-86
2023/10/10 12:33:48;;;;;;;7.95;3.75;;;;;;;-144.05;36.29;57129.22;5081138;28;20074;-83
2023/10/10 12:36:16;;;;;;;8.18;3.78;;;;;;;-144.05;36.11;57105.84;5094414;28;20050;-86
2023/10/10 12:38:43;;;;;;;11.68;4.45;;;;;;;-144.05;35.16;57141.94;5091219;28;20431;-82
2023/10/10 12:41:11;;;;;;;8.00;3.53;;;;;;;-144.05;35.57;57154.69;5082506;28;20060;-85
2023/10/10 12:43:38;;;;;;;9.90;4.28;;;;;;;-144.05;35.31;57127.09;5099995;28;20024;-86
2023/10/10 12:46:07;;;;;;;8.65;3.50;;;;;;;-144.05;35.92;57141.94;5100555;28;20654;-85
2023/10/10 12:48:40;;;;;;;10.02;3.97;;;;;;;-144.05;35.83;57114.34;5100761;28;20020;-85
2023/10/10 12:51:09;;;;;;;8.68;3.72;;;;;;;-144.05;35.13;57129.22;5096342;28;20037;-87
2023/10/10 12:53:42;;;;;;;11.30;3.92;;;;;;;-144.05;35.88;57099.47;5099520;28;20143;-86
2023/10/10 12:56:16;;;;;;;11.63;3.70;;;;;;;-144.05;35.41;57099.47;5082080;28;20115;-86
2023/10/10 12:58:57;;;;;;;10.95;3.67;;;;;;;-144.05;35.31;57114.34;5098208;28;20051;-82
2023/10/10 13:01:25;;;;;;;7.43;3.30;;;;;;;-144.05;34.58;57120.72;5099378;28;20440;-83
2023/10/10 13:03:52;;;;;;;7.90;3.92;;;;;;;-144.05;34.43;57088.84;5080529;28;20027;-85
2023/10/10 13:06:18;;;;;;;9.65;3.47;;;;;;;-144.05;35.21;57112.22;5099256;28;20393;-85
2023/10/10 13:08:48;;;;;;;8.00;3.50;;;;;;;-144.05;35.49;57112.22;5092927;28;20055;-88
2023/10/10 13:11:20;;;;;;;9.38;4.07;;;26.00;97.60;;;-144.05;34.84;57112.22;5077537;28;20021;-86
2023/10/10 13:13:51;;;;;;;7.60;3.17;;;26.90;98.20;;;-144.05;35.19;57139.81;5098347;28;20035;-86
2023/10/10 13:16:23;;;;;;;9.13;4.15;;;;;;;-144.05;35.19;57146.19;5097994;28;20398;-83
2023/10/10 13:18:56;;;;;;;12.23;3.80;;;25.90;97.40;;;-144.05;34.97;57131.31;5097142;28;20016;-83
2023/10/10 13:21:24;;;;;;;12.68;4.28;;;;;;;-144.05;35.21;57116.47;5082381;28;20484;-87
2023/10/10 13:23:53;;;;;;;11.15;4.40;;;26.70;96.70;;;-144.05;34.49;57137.69;5097175;28;20024;-83
2023/10/10 13:26:20;;;;;;;8.35;3.53;;;;;;;-144.05;35.50;57095.22;5088759;28;20418;-83
2023/10/10 13:28:47;;;;;;;9.52;3.65;;;;;;;-144.05;35.35;57088.84;5091594;28;20032;-85
2023/10/10 13:31:14;;;;;;;10.20;3.70;;;;;;;-144.05;35.66;57135.56;5076646;28;20555;-85
2023/10/10 13:33:41;;;;;;;12.32;3.20;;;;;;;-144.05;35.24;57103.72;5095889;28;20573;-85
2023/10/10 13:36:14;;;;;;;13.68;4.65;;;;;;;-144.05;35.40;57105.84;5098758;28;20036;-83
2023/10/10 13:38:50;;;;;;;12.68;4.20;;;26.70;97.70;;;-144.05;35.35;57150.44;5077822;28;20024;-85
2023/10/10 13:41:22;;;;;;;11.55;4.03;;;;;;;-144.05;36.40;57112.22;5086928;28;20021;-85
2023/10/10 13:43:53;;;;;;;9.85;4.35;;;;;;;-144.05;36.76;57103.72;5097617;28;20024;-85
2023/10/10 13:46:23;;;;;;;8.60;3.83;;;26.00;99.00;;;-144.05;36.97;57078.22;5098919;28;20028;-85
2023/10/10 13:48:50;;;;;;;10.93;3.67;;;;;;;-144.05;37.07;57082.47;5096595;28;20021;-80
2023/10/10 13:51:16;;;;;;;12.35;4.40;;;25.50;99.20;;;-144.05;37.06;57082.47;5095011;28;20032;-85